Time;durP1;ratioP1;P1;durP2;ratioP2;P2;SDS_P1;SDS_P2;PMS_P1;PMS_P2;Temp;Humidity;BMP_temperature;BMP_pressure;BME280_temperature;BME280_humidity;BME280_pressure;Samples;Min_cycle;Max_cycle;Signal;HPM_P1;HPM_P2
2023/10/28 00:01:48;;;;;;;23.17;11.13;;;11.30;88.60;;;;;;5048884;28;20133;-84
2023/10/28 00:04:16;;;;;;;22.95;10.95;;;11.30;88.60;;;;;;5032522;28;20288;-84
2023/10/28 00:06:43;;;;;;;22.35;11.05;;;11.30;88.60;;;;;;5032048;28;20067;-85
2023/10/28 00:09:10;;;;;;;23.05;11.32;;;11.30;88.50;;;;;;5015632;28;20060;-85
2023/10/28 00:11:37;;;;;;;22.55;10.95;;;11.30;88.50;;;;;;5016081;28;20046;-84
2023/10/28 00:14:05;;;;;;;21.40;10.50;;;11.30;88.40;;;;;;5032258;28;20516;-84
2023/10/28 00:16:31;;;;;;;23.00;10.40;;;11.30;88.30;;;;;;5031842;28;20279;-84
2023/10/28 00:18:59;;;;;;;21.90;11.23;;;11.30;88.20;;;;;;5015019;28;20140;-84
2023/10/28 00:21:28;;;;;;;21.00;11.00;;;11.30;88.10;;;;;;5032140;28;20144;-84
2023/10/28 00:23:56;;;;;;;24.77;12.45;;;11.30;88.10;;;;;;5032014;28;20064;-85
2023/10/28 00:26:23;;;;;;;22.73;11.17;;;11.30;88.00;;;;;;5015757;28;20045;-84
2023/10/28 00:28:52;;;;;;;21.30;10.45;;;11.30;87.90;;;;;;5015072;28;20280;-84
2023/10/28 00:31:20;;;;;;;25.95;12.70;;;11.30;87.80;;;;;;5015155;28;20048;-84
2023/10/28 00:33:47;;;;;;;28.73;11.98;;;11.30;87.70;;;;;;5048177;28;20053;-84
2023/10/28 00:36:14;;;;;;;25.40;12.07;;;11.20;87.80;;;;;;5031766;28;20103;-84
2023/10/28 00:38:42;;;;;;;24.80;12.03;;;11.20;87.80;;;;;;5031688;28;20058;-84
2023/10/28 00:41:09;;;;;;;24.75;11.40;;;11.20;87.80;;;;;;5015316;28;20710;-84
2023/10/28 00:43:37;;;;;;;24.15;11.45;;;11.10;87.80;;;;;;5048047;28;20129;-84
2023/10/28 00:46:07;;;;;;;25.55;11.90;;;11.10;87.70;;;;;;5047609;28;20507;-84
2023/10/28 00:48:34;;;;;;;25.25;11.98;;;11.10;87.70;;;;;;5047973;28;20052;-84
2023/10/28 00:51:01;;;;;;;24.80;11.37;;;11.10;87.80;;;;;;5014979;28;20184;-84
2023/10/28 00:53:30;;;;;;;23.73;11.13;;;11.10;87.80;;;;;;5015002;28;20280;-84
2023/10/28 00:56:01;;;;;;;28.10;12.30;;;11.10;87.80;;;;;;5014557;28;20128;-84
2023/10/28 00:58:29;;;;;;;25.67;12.55;;;11.10;87.80;;;;;;5014726;28;20053;-84
2023/10/28 01:00:58;;;;;;;22.85;11.52;;;11.10;87.80;;;;;;5031210;28;20136;-85
2023/10/28 01:03:28;;;;;;;20.67;11.00;;;11.10;87.90;;;;;;5031552;28;20073;-84
2023/10/28 01:05:56;;;;;;;24.52;11.57;;;11.00;87.80;;;;;;5030942;28;20612;-84
2023/10/28 01:08:23;;;;;;;23.73;11.63;;;11.00;87.80;;;;;;5014502;28;20477;-84
2023/10/28 01:10:50;;;;;;;24.27;11.05;;;11.00;87.90;;;;;;5015006;28;20045;-84
2023/10/28 01:13:19;;;;;;;25.35;12.80;;;11.00;87.80;;;;;;5014521;28;20093;-84
2023/10/28 01:15:45;;;;;;;22.27;10.50;;;11.00;87.80;;;;;;5011100;28;20076;-84
2023/10/28 01:18:13;;;;;;;23.27;11.13;;;11.00;87.80;;;;;;5028132;28;20629;-84
2023/10/28 01:20:40;;;;;;;24.75;11.32;;;10.90;87.80;;;;;;5027917;28;20112;-84
2023/10/28 01:23:09;;;;;;;23.98;11.20;;;10.90;87.80;;;;;;5027534;28;20653;-84
2023/10/28 01:25:36;;;;;;;23.17;11.35;;;10.90;87.90;;;;;;5027338;28;20150;-84
2023/10/28 01:28:03;;;;;;;27.80;12.20;;;10.90;88.00;;;;;;5010758;28;20591;-84
2023/10/28 01:30:30;;;;;;;24.83;11.40;;;10.90;88.00;;;;;;5028100;28;20265;-84
2023/10/28 01:32:58;;;;;;;28.45;11.68;;;10.80;88.00;;;;;;5027543;28;20062;-84
2023/10/28 01:35:24;;;;;;;21.52;10.18;;;10.80;87.90;;;;;;5010986;28;20053;-84
2023/10/28 01:37:51;;;;;;;23.52;11.85;;;10.80;87.90;;;;;;5011139;28;20137;-84
2023/10/28 01:40:20;;;;;;;24.43;10.73;;;10.80;88.00;;;;;;5027238;28;20042;-84
2023/10/28 01:42:47;;;;;;;23.00;10.57;;;10.80;88.00;;;;;;5011336;28;20273;-84
2023/10/28 01:45:16;;;;;;;24.45;11.35;;;10.70;88.00;;;;;;5011127;28;20565;-85
2023/10/28 01:47:44;;;;;;;21.85;10.55;;;10.70;88.00;;;;;;5027491;28;20053;-84
2023/10/28 01:50:12;;;;;;;24.70;10.20;;;10.70;88.10;;;;;;5010733;28;20589;-85
2023/10/28 01:52:39;;;;;;;20.60;10.57;;;10.70;88.10;;;;;;5010611;28;20156;-84
2023/10/28 01:55:09;;;;;;;21.00;10.75;;;10.70;88.20;;;;;;5027484;28;20277;-84
2023/10/28 01:57:38;;;;;;;20.23;10.02;;;10.60;88.20;;;;;;5010529;28;20069;-85
2023/10/28 02:00:07;;;;;;;19.42;9.48;;;10.60;88.20;;;;;;5027422;28;20058;-84
2023/10/28 02:02:37;;;;;;;21.08;9.82;;;10.60;88.10;;;;;;5027103;28;20049;-84
2023/10/28 02:05:06;;;;;;;19.30;9.80;;;10.60;88.20;;;;;;5010988;28;20041;-84
2023/10/28 02:07:34;;;;;;;19.88;10.10;;;10.60;88.20;;;;;;5010367;28;20718;-84
2023/10/28 02:10:01;;;;;;;19.63;9.60;;;10.60;88.20;;;;;;5026923;28;20121;-84
2023/10/28 02:12:30;;;;;;;19.35;9.43;;;10.50;88.20;;;;;;5010365;28;20045;-85
2023/10/28 02:14:58;;;;;;;20.00;9.45;;;10.50;88.30;;;;;;5010637;28;20607;-84
2023/10/28 02:17:25;;;;;;;18.30;8.77;;;10.50;88.20;;;;;;5026980;28;20081;-84
2023/10/28 02:19:56;;;;;;;15.52;8.52;;;10.50;88.20;;;;;;5010425;28;20344;-84
2023/10/28 02:22:23;;;;;;;18.75;9.00;;;10.50;88.20;;;;;;5010618;28;20060;-84
2023/10/28 02:24:50;;;;;;;18.45;8.98;;;10.50;88.20;;;;;;5025926;28;20068;-84
2023/10/28 02:27:17;;;;;;;17.83;8.88;;;10.50;88.20;;;;;;5026572;28;20550;-84
2023/10/28 02:29:45;;;;;;;15.97;8.17;;;10.50;88.10;;;;;;5026802;28;20058;-84
2023/10/28 02:32:13;;;;;;;19.75;8.57;;;10.50;88.00;;;;;;5009981;28;20292;-84
2023/10/28 02:34:41;;;;;;;19.13;8.52;;;10.50;88.00;;;;;;5009916;28;20057;-84
2023/10/28 02:37:08;;;;;;;17.05;7.53;;;10.40;88.00;;;;;;5026580;28;20049;-84
2023/10/28 02:39:35;;;;;;;17.70;8.25;;;10.40;88.00;;;;;;5010327;28;20477;-85
2023/10/28 02:42:02;;;;;;;16.43;7.27;;;10.40;88.00;;;;;;5010272;28;20141;-85
2023/10/28 02:44:30;;;;;;;15.18;7.53;;;10.40;88.00;;;;;;5010388;28;20815;-84
2023/10/28 02:46:58;;;;;;;16.25;8.07;;;10.40;88.00;;;;;;5010016;28;20668;-84
2023/10/28 02:49:27;;;;;;;18.67;8.10;;;10.40;88.00;;;;;;5026854;28;20046;-84
2023/10/28 02:51:54;;;;;;;14.90;8.00;;;10.40;88.00;;;;;;5028494;28;20474;-84
2023/10/28 02:54:21;;;;;;;15.03;7.50;;;10.40;88.00;;;;;;5026653;28;20057;-84
2023/10/28 02:56:48;;;;;;;15.35;7.35;;;10.30;88.00;;;;;;5010043;28;20261;-84
2023/10/28 02:59:15;;;;;;;14.15;7.03;;;10.30;88.00;;;;;;5010050;28;20133;-84
2023/10/28 03:01:43;;;;;;;15.52;6.95;;;10.30;87.90;;;;;;5009903;28;20169;-84
2023/10/28 03:04:11;;;;;;;15.27;7.40;;;10.30;87.90;;;;;;5009905;28;20064;-84
2023/10/28 03:06:40;;;;;;;13.30;6.67;;;10.30;87.90;;;;;;5009764;28;20106;-84
2023/10/28 03:09:07;;;;;;;16.00;6.97;;;10.20;88.00;;;;;;5026716;28;20384;-85
2023/10/28 03:11:35;;;;;;;14.05;7.13;;;10.20;88.00;;;;;;5010027;28;20053;-85
2023/10/28 03:14:01;;;;;;;17.63;8.05;;;10.20;88.00;;;;;;5026205;28;20614;-84
2023/10/28 03:16:28;;;;;;;14.32;6.85;;;10.20;87.90;;;;;;5009352;28;20086;-85
2023/10/28 03:18:56;;;;;;;12.30;6.60;;;10.20;88.00;;;;;;5026316;28;20723;-84
2023/10/28 03:21:23;;;;;;;14.68;7.30;;;10.10;88.00;;;;;;5009566;28;20268;-84
2023/10/28 03:23:52;;;;;;;13.18;6.47;;;10.10;88.10;;;;;;5009543;28;20793;-84
2023/10/28 03:26:19;;;;;;;15.30;6.97;;;10.10;88.10;;;;;;5026049;28;20064;-84
2023/10/28 03:28:46;;;;;;;12.80;6.85;;;10.10;88.10;;;;;;5026030;28;20108;-84
2023/10/28 03:31:14;;;;;;;15.63;7.00;;;10.10;88.20;;;;;;5009854;28;20124;-84
2023/10/28 03:33:42;;;;;;;13.73;6.70;;;10.10;88.10;;;;;;5025989;28;20767;-85
2023/10/28 03:36:10;;;;;;;12.90;6.45;;;10.10;88.10;;;;;;5028377;28;20065;-84
2023/10/28 03:38:37;;;;;;;13.20;6.70;;;10.10;88.30;;;;;;5012854;28;20470;-84
2023/10/28 03:41:07;;;;;;;14.32;6.63;;;10.10;88.20;;;;;;5012825;28;20057;-85
2023/10/28 03:43:34;;;;;;;14.17;6.93;;;10.10;88.30;;;;;;5029596;28;20194;-84
2023/10/28 03:46:01;;;;;;;13.75;6.88;;;10.10;88.30;;;;;;5012456;28;20270;-84
2023/10/28 03:48:28;;;;;;;13.43;6.65;;;10.10;88.30;;;;;;5029190;28;20658;-84
2023/10/28 03:51:00;;;;;;;13.60;6.40;;;10.10;88.40;;;;;;5012899;28;20543;-84
2023/10/28 03:53:27;;;;;;;12.98;6.38;;;10.10;88.40;;;;;;5029136;28;20173;-84
2023/10/28 03:55:54;;;;;;;13.70;6.47;;;10.10;88.40;;;;;;5029078;28;20522;-84
2023/10/28 03:58:23;;;;;;;14.25;6.72;;;10.10;88.50;;;;;;5012754;28;20655;-84
2023/10/28 04:00:52;;;;;;;12.98;6.47;;;10.10;88.50;;;;;;5029074;28;20574;-84
2023/10/28 04:03:19;;;;;;;15.50;6.68;;;10.10;88.50;;;;;;5029023;28;20050;-84
2023/10/28 04:05:46;;;;;;;15.02;7.07;;;10.10;88.50;;;;;;5012349;28;20155;-84
2023/10/28 04:08:13;;;;;;;16.17;7.03;;;10.10;88.50;;;;;;5028981;28;20540;-84
2023/10/28 04:10:41;;;;;;;13.50;7.05;;;10.20;88.50;;;;;;5012082;28;20786;-84
2023/10/28 04:13:09;;;;;;;17.23;7.53;;;10.20;88.50;;;;;;5029444;28;20120;-84
2023/10/28 04:15:38;;;;;;;14.80;6.72;;;10.20;88.60;;;;;;5029158;28;20137;-86
2023/10/28 04:18:05;;;;;;;14.68;7.47;;;10.20;88.60;;;;;;5029098;28;20152;-84
2023/10/28 04:20:33;;;;;;;18.73;7.13;;;10.20;88.70;;;;;;5012505;28;20337;-85
2023/10/28 04:23:00;;;;;;;16.13;8.07;;;10.20;88.80;;;;;;5029135;28;20264;-85
2023/10/28 04:25:28;;;;;;;16.10;7.88;;;10.20;88.80;;;;;;5029153;28;20058;-84
2023/10/28 04:27:55;;;;;;;18.42;7.85;;;10.20;88.90;;;;;;5011990;28;20054;-85
2023/10/28 04:30:22;;;;;;;18.48;7.63;;;10.20;89.00;;;;;;5012323;28;20056;-84
2023/10/28 04:32:53;;;;;;;20.80;8.87;;;10.20;89.00;;;;;;5012300;28;20062;-85
2023/10/28 04:35:20;;;;;;;19.67;8.15;;;10.20;89.30;;;;;;5011926;28;20256;-85
2023/10/28 04:37:46;;;;;;;18.73;8.70;;;10.20;89.30;;;;;;5011876;28;20050;-84
2023/10/28 04:40:14;;;;;;;16.83;7.95;;;10.20;89.30;;;;;;5012051;28;20088;-84
2023/10/28 04:42:41;;;;;;;17.25;8.30;;;10.20;89.40;;;;;;5028675;28;20137;-84
2023/10/28 04:45:10;;;;;;;18.97;8.80;;;10.20;89.40;;;;;;5012106;28;20054;-84
2023/10/28 04:47:37;;;;;;;18.83;8.43;;;10.30;89.50;;;;;;5027403;28;20276;-85
2023/10/28 04:50:06;;;;;;;20.73;8.32;;;10.30;89.50;;;;;;5011941;28;20503;-84
2023/10/28 04:52:33;;;;;;;17.13;7.78;;;10.30;89.60;;;;;;5012413;28;20239;-84
2023/10/28 04:54:59;;;;;;;14.98;7.13;;;10.30;89.70;;;;;;5012052;28;20109;-85
2023/10/28 04:57:27;;;;;;;18.73;8.37;;;10.30;89.70;;;;;;5028029;28;20046;-84
2023/10/28 04:59:54;;;;;;;18.38;8.60;;;10.30;89.80;;;;;;5028544;28;20373;-84
2023/10/28 05:02:22;;;;;;;17.10;7.45;;;10.40;89.80;;;;;;5011847;28;20053;-85
2023/10/28 05:04:49;;;;;;;17.98;7.95;;;10.40;89.80;;;;;;5028377;28;20164;-84
2023/10/28 05:07:17;;;;;;;16.88;7.05;;;10.40;89.80;;;;;;5011667;28;20046;-84
2023/10/28 05:09:44;;;;;;;16.57;7.70;;;10.40;89.80;;;;;;5028316;28;20058;-84
2023/10/28 05:12:11;;;;;;;18.38;7.22;;;10.40;89.80;;;;;;5028180;28;20770;-84
2023/10/28 05:14:38;;;;;;;19.38;7.93;;;10.40;89.90;;;;;;5028034;28;20483;-85
2023/10/28 05:17:05;;;;;;;14.77;7.55;;;10.40;90.00;;;;;;5027382;28;20125;-85
2023/10/28 05:19:32;;;;;;;16.00;7.35;;;10.40;90.00;;;;;;5011384;28;20594;-85
2023/10/28 05:22:01;;;;;;;16.70;6.67;;;10.40;90.00;;;;;;5027880;28;20132;-84
2023/10/28 05:24:30;;;;;;;13.27;6.60;;;10.40;90.00;;;;;;5011408;28;20273;-85
2023/10/28 05:26:57;;;;;;;13.73;7.00;;;10.40;90.00;;;;;;5026846;28;20050;-85
2023/10/28 05:29:24;;;;;;;17.75;6.80;;;10.40;90.00;;;;;;5011090;28;20056;-85
2023/10/28 05:31:51;;;;;;;12.98;6.43;;;10.40;90.10;;;;;;5011289;28;20503;-85
2023/10/28 05:34:20;;;;;;;18.20;7.53;;;10.40;90.00;;;;;;5011582;28;20136;-85
2023/10/28 05:36:47;;;;;;;16.05;6.45;;;10.40;90.10;;;;;;5027597;28;20258;-85
2023/10/28 05:39:14;;;;;;;14.48;6.75;;;10.50;90.10;;;;;;5010978;28;20061;-85
2023/10/28 05:41:42;;;;;;;13.18;6.50;;;10.50;90.20;;;;;;5027458;28;20578;-85
2023/10/28 05:44:09;;;;;;;13.43;6.25;;;10.50;90.20;;;;;;5027703;28;20046;-85
2023/10/28 05:46:36;;;;;;;17.90;7.03;;;10.50;90.10;;;;;;5027421;28;20451;-84
2023/10/28 05:49:03;;;;;;;17.45;6.93;;;10.50;90.10;;;;;;5011073;28;20304;-85
2023/10/28 05:51:35;;;;;;;14.90;6.10;;;10.50;90.20;;;;;;5027411;28;20064;-85
2023/10/28 05:54:02;;;;;;;15.85;7.22;;;10.50;90.20;;;;;;5011293;28;20058;-85
2023/10/28 05:56:30;;;;;;;12.95;6.50;;;10.50;90.30;;;;;;5027133;28;20527;-85
2023/10/28 05:59:00;;;;;;;12.33;6.47;;;10.60;90.30;;;;;;5027006;28;20155;-85
2023/10/28 06:01:27;;;;;;;12.18;5.53;;;10.50;90.30;;;;;;5027401;28;20265;-85
2023/10/28 06:03:54;;;;;;;16.58;6.63;;;10.60;90.30;;;;;;5027144;28;20586;-84
2023/10/28 06:06:21;;;;;;;15.13;6.45;;;10.60;90.40;;;;;;5027159;28;20068;-84
2023/10/28 06:08:48;;;;;;;14.25;6.03;;;10.60;90.40;;;;;;5010519;28;20049;-85
2023/10/28 06:11:15;;;;;;;12.47;5.17;;;10.60;90.40;;;;;;5010282;28;20133;-85
2023/10/28 06:13:42;;;;;;;12.55;5.82;;;10.60;90.40;;;;;;5027470;28;20388;-85
2023/10/28 06:16:11;;;;;;;11.50;5.65;;;10.60;90.40;;;;;;5026672;28;20374;-85
2023/10/28 06:18:38;;;;;;;10.68;5.03;;;10.60;90.40;;;;;;5010334;28;20046;-85
2023/10/28 06:21:05;;;;;;;14.65;5.95;;;10.60;90.50;;;;;;5010965;28;20061;-85
2023/10/28 06:23:33;;;;;;;11.13;5.07;;;10.60;90.40;;;;;;5010959;28;20057;-85
2023/10/28 06:25:59;;;;;;;12.27;4.68;;;10.70;90.40;;;;;;5026541;28;20265;-85
2023/10/28 06:28:27;;;;;;;11.77;5.10;;;10.60;90.40;;;;;;5009709;28;20053;-85
2023/10/28 06:30:54;;;;;;;12.82;5.00;;;10.60;90.30;;;;;;5010320;28;20054;-85
2023/10/28 06:33:24;;;;;;;10.23;5.25;;;10.60;90.30;;;;;;5010290;28;20081;-85
2023/10/28 06:35:51;;;;;;;9.03;4.40;;;10.60;90.20;;;;;;5026906;28;20165;-85
2023/10/28 06:38:18;;;;;;;10.07;4.57;;;10.60;90.20;;;;;;5026429;28;20826;-85
2023/10/28 06:40:47;;;;;;;10.70;4.90;;;10.60;90.30;;;;;;5026565;28;20061;-85
2023/10/28 06:43:14;;;;;;;13.48;5.20;;;10.70;90.30;;;;;;5026594;28;20058;-85
2023/10/28 06:45:41;;;;;;;9.63;4.72;;;10.70;90.20;;;;;;5026817;28;20541;-85
2023/10/28 06:48:08;;;;;;;10.73;4.80;;;10.60;90.20;;;;;;5009615;28;20132;-85
2023/10/28 06:50:36;;;;;;;10.57;5.47;;;10.60;90.20;;;;;;5009808;28;20705;-85
2023/10/28 06:53:03;;;;;;;11.02;4.15;;;10.70;90.20;;;;;;5010030;28;20502;-85
2023/10/28 06:55:30;;;;;;;9.48;4.03;;;10.60;90.20;;;;;;5026269;28;20062;-85
2023/10/28 06:58:00;;;;;;;8.98;3.60;;;10.60;90.10;;;;;;5026154;28;20105;-84
2023/10/28 07:00:28;;;;;;;8.03;3.80;;;10.60;90.20;;;;;;5026281;28;20499;-85
2023/10/28 07:02:55;;;;;;;7.57;3.42;;;10.60;90.20;;;;;;5026756;28;20898;-84
2023/10/28 07:05:24;;;;;;;11.27;3.80;;;10.70;90.10;;;;;;5026381;28;20121;-84
2023/10/28 07:07:54;;;;;;;7.78;3.90;;;10.70;90.20;;;;;;5026252;28;20061;-85
2023/10/28 07:10:21;;;;;;;7.43;3.63;;;10.70;90.10;;;;;;5010580;28;20617;-85
2023/10/28 07:12:49;;;;;;;9.80;3.33;;;10.60;90.10;;;;;;5029865;28;20057;-85
2023/10/28 07:15:17;;;;;;;7.10;3.65;;;10.60;90.10;;;;;;5013612;28;20352;-84
2023/10/28 07:17:44;;;;;;;9.27;3.60;;;10.70;90.10;;;;;;5012783;28;20058;-85
2023/10/28 07:20:11;;;;;;;8.63;3.45;;;10.70;90.00;;;;;;5013434;28;20062;-84
2023/10/28 07:22:38;;;;;;;8.02;2.90;;;10.70;90.00;;;;;;5013418;28;20133;-85
2023/10/28 07:25:08;;;;;;;9.13;3.30;;;10.70;89.90;;;;;;5029761;28;20054;-85
2023/10/28 07:27:35;;;;;;;8.70;3.70;;;10.60;89.80;;;;;;5029020;28;20281;-85
2023/10/28 07:30:02;;;;;;;7.82;3.42;;;10.70;89.80;;;;;;5029488;28;20061;-85
2023/10/28 07:32:30;;;;;;;7.57;2.95;;;10.60;89.70;;;;;;5029675;28;20054;-84
2023/10/28 07:34:57;;;;;;;8.98;3.45;;;10.60;89.70;;;;;;5029711;28;20042;-85
2023/10/28 07:37:25;;;;;;;9.30;3.50;;;10.60;89.70;;;;;;5029207;28;20045;-85
2023/10/28 07:39:52;;;;;;;7.95;3.08;;;10.60;89.80;;;;;;5029369;28;20287;-85
2023/10/28 07:42:23;;;;;;;6.30;3.10;;;10.60;89.70;;;;;;5013187;28;20133;-85
2023/10/28 07:44:51;;;;;;;7.40;3.13;;;10.60;89.70;;;;;;5029194;28;20551;-85
2023/10/28 07:47:18;;;;;;;7.28;2.97;;;10.60;89.60;;;;;;5012598;28;20050;-85
2023/10/28 07:49:45;;;;;;;7.17;2.83;;;10.60;89.70;;;;;;5029649;28;20132;-85
2023/10/28 07:52:12;;;;;;;6.60;2.67;;;10.60;89.70;;;;;;5013263;28;20269;-85
2023/10/28 07:54:39;;;;;;;6.00;2.90;;;10.60;89.70;;;;;;5012634;28;20121;-85
2023/10/28 07:57:06;;;;;;;7.10;3.20;;;10.60;89.70;;;;;;5029267;28;20057;-85
2023/10/28 07:59:34;;;;;;;6.25;3.30;;;10.60;89.80;;;;;;5012393;28;20682;-85
2023/10/28 08:02:01;;;;;;;6.83;3.10;;;10.60;89.70;;;;;;5029883;28;20617;-85
2023/10/28 08:04:28;;;;;;;5.63;2.47;;;10.60;89.80;;;;;;5029035;28;20262;-85
2023/10/28 08:06:55;;;;;;;7.82;3.00;;;10.60;89.80;;;;;;5012339;28;20065;-84
2023/10/28 08:09:22;;;;;;;7.38;2.80;;;10.70;89.80;;;;;;5012646;28;20508;-85
2023/10/28 08:11:50;;;;;;;6.80;2.80;;;10.70;89.80;;;;;;5029230;28;20507;-85
2023/10/28 08:14:17;;;;;;;8.20;2.70;;;10.70;89.80;;;;;;5028893;28;20046;-84
2023/10/28 08:16:45;;;;;;;7.50;2.28;;;10.70;89.80;;;;;;5028758;28;20771;-85
2023/10/28 08:19:13;;;;;;;7.05;2.60;;;10.70;89.80;;;;;;5012017;28;20081;-85
2023/10/28 08:21:40;;;;;;;6.20;2.35;;;10.70;89.80;;;;;;5027524;28;20061;-85
2023/10/28 08:24:11;;;;;;;6.05;2.33;;;10.70;89.80;;;;;;5028938;28;20050;-85
2023/10/28 08:26:39;;;;;;;7.67;2.47;;;10.70;89.80;;;;;;5028792;28;20156;-85
2023/10/28 08:29:06;;;;;;;6.07;2.30;;;10.70;89.80;;;;;;5028998;28;20667;-85
2023/10/28 08:31:33;;;;;;;6.07;2.38;;;10.80;89.90;;;;;;5028774;28;20140;-85
2023/10/28 08:34:04;;;;;;;6.93;2.65;;;10.80;89.90;;;;;;5028930;28;20058;-86
2023/10/28 08:36:31;;;;;;;7.97;2.80;;;10.80;89.90;;;;;;5028100;28;20526;-85
2023/10/28 08:38:58;;;;;;;7.10;2.57;;;10.80;90.00;;;;;;5012263;28;20061;-85
2023/10/28 08:41:25;;;;;;;6.32;2.63;;;10.80;89.90;;;;;;5028438;28;21296;-85
2023/10/28 08:43:52;;;;;;;6.43;2.55;;;10.80;89.90;;;;;;5028518;28;20049;-85
2023/10/28 08:46:21;;;;;;;6.95;2.33;;;10.80;89.90;;;;;;5028302;28;20045;-85
2023/10/28 08:48:48;;;;;;;6.70;2.40;;;10.90;89.80;;;;;;5012123;28;20066;-85
2023/10/28 08:51:17;;;;;;;6.03;2.50;;;10.90;89.90;;;;;;5028468;28;20090;-85
2023/10/28 08:53:45;;;;;;;5.53;2.60;;;10.90;89.90;;;;;;5011982;28;20282;-85
2023/10/28 08:56:17;;;;;;;8.73;2.67;;;10.90;89.90;;;;;;5011689;28;20498;-85
2023/10/28 08:58:48;;;;;;;6.50;2.70;;;10.90;90.00;;;;;;5011653;28;20531;-85
2023/10/28 09:01:16;;;;;;;9.18;2.83;;;11.00;89.90;;;;;;5027994;28;20201;-85
2023/10/28 09:03:43;;;;;;;6.07;2.77;;;11.00;89.90;;;;;;5027784;28;20137;-85
2023/10/28 09:06:10;;;;;;;5.65;2.60;;;11.00;89.90;;;;;;5011489;28;20276;-85
2023/10/28 09:08:39;;;;;;;7.00;2.70;;;11.00;89.90;;;;;;5028293;28;20089;-86
2023/10/28 09:11:07;;;;;;;5.88;2.70;;;11.00;89.90;;;;;;5012007;28;20089;-85
2023/10/28 09:13:34;;;;;;;6.93;2.60;;;11.00;89.90;;;;;;5028385;28;20077;-85
2023/10/28 09:16:02;;;;;;;6.57;2.80;;;11.00;89.90;;;;;;5011646;28;20060;-86
2023/10/28 09:18:38;;;;;;;6.88;2.78;;;11.00;89.90;;;;;;5027591;28;20266;-86
2023/10/28 09:21:09;;;;;;;5.82;2.45;;;11.10;89.90;;;;;;5028073;28;20054;-85
2023/10/28 09:23:36;;;;;;;6.70;2.80;;;11.10;90.00;;;;;;5028039;28;20165;-85
2023/10/28 09:26:05;;;;;;;7.75;2.80;;;11.10;89.90;;;;;;5011297;28;20116;-86
2023/10/28 09:28:32;;;;;;;6.90;2.93;;;11.10;89.80;;;;;;5011173;28;20686;-86
2023/10/28 09:30:59;;;;;;;6.32;2.70;;;11.10;89.90;;;;;;5027826;28;20453;-86
2023/10/28 09:33:27;;;;;;;6.03;2.60;;;11.10;90.00;;;;;;5027500;28;20130;-86
2023/10/28 09:35:54;;;;;;;9.30;2.60;;;11.10;90.00;;;;;;5027878;28;20173;-86
2023/10/28 09:38:22;;;;;;;7.57;2.70;;;11.20;89.90;;;;;;5027512;28;20062;-86
2023/10/28 09:40:49;;;;;;;6.57;2.90;;;11.10;90.00;;;;;;5011497;28;20526;-86
2023/10/28 09:43:18;;;;;;;6.47;2.55;;;11.20;90.00;;;;;;5010968;28;20270;-86
2023/10/28 09:45:49;;;;;;;5.82;2.60;;;11.30;90.00;;;;;;5010682;28;20146;-86
2023/10/28 09:48:17;;;;;;;8.38;2.90;;;11.30;90.00;;;;;;5010758;28;20076;-86
2023/10/28 09:50:48;;;;;;;5.57;2.75;;;11.30;90.00;;;;;;5011084;28;20113;-86
2023/10/28 09:53:18;;;;;;;7.97;3.50;;;11.30;90.00;;;;;;5011025;28;20057;-85
2023/10/28 09:55:49;;;;;;;6.55;2.70;;;11.40;90.10;;;;;;5027279;28;20702;-86
2023/10/28 09:58:23;;;;;;;5.32;2.42;;;11.40;89.80;;;;;;5026413;28;20564;-86
2023/10/28 10:00:55;;;;;;;6.97;2.83;;;11.40;89.60;;;;;;5011043;28;20197;-85
2023/10/28 10:03:37;;;;;;;9.05;2.58;;;11.40;89.60;;;;;;5027135;28;20050;-86
2023/10/28 10:06:05;;;;;;;6.83;2.40;;;11.40;89.50;;;;;;5027306;28;20144;-85
2023/10/28 10:08:33;;;;;;;7.03;2.40;;;11.40;89.50;;;;;;5026914;28;20333;-86
2023/10/28 10:11:00;;;;;;;8.52;2.75;;;11.40;89.40;;;;;;5010495;28;20636;-86
2023/10/28 10:13:29;;;;;;;5.97;2.45;;;11.40;89.40;;;;;;5027074;28;20042;-86
2023/10/28 10:16:03;;;;;;;7.28;2.70;;;11.40;89.40;;;;;;5027228;28;20054;-85
2023/10/28 10:18:37;;;;;;;6.57;2.30;;;11.50;89.40;;;;;;5010222;28;20066;-86
2023/10/28 10:21:05;;;;;;;6.60;2.20;;;11.50;89.40;;;;;;5010761;28;20336;-86
2023/10/28 10:23:43;;;;;;;5.47;2.25;;;11.50;89.50;;;;;;5010238;28;20129;-86
2023/10/28 10:26:23;;;;;;;6.55;2.70;;;11.50;89.50;;;;;;5027468;28;20598;-86
2023/10/28 10:28:54;;;;;;;7.63;2.47;;;11.50;89.50;;;;;;5010158;28;20100;-86
2023/10/28 10:31:24;;;;;;;5.00;2.17;;;11.50;89.50;;;;;;5026990;28;20065;-86
2023/10/28 10:34:07;;;;;;;8.45;2.42;;;11.50;89.40;;;;;;5026848;28;20246;-86
2023/10/28 10:36:40;;;;;;;7.65;2.50;;;11.50;89.30;;;;;;5026932;28;20045;-87
2023/10/28 10:39:14;;;;;;;6.68;2.22;;;11.50;89.30;;;;;;5010493;28;20649;-86
2023/10/28 10:41:42;;;;;;;6.13;1.90;;;11.50;89.30;;;;;;5010176;28;20137;-86
2023/10/28 10:44:24;;;;;;;5.00;2.10;;;11.60;89.30;;;;;;5009874;28;20088;-86
2023/10/28 10:46:51;;;;;;;5.90;2.38;;;11.60;89.20;;;;;;5009940;28;20281;-86
2023/10/28 10:49:18;;;;;;;5.35;2.40;;;11.60;89.20;;;;;;5026560;28;20186;-86
2023/10/28 10:51:46;;;;;;;6.55;2.53;;;11.70;89.20;;;;;;5010018;28;20053;-86
2023/10/28 10:54:13;;;;;;;5.82;2.40;;;11.70;89.30;;;;;;5026977;28;20524;-87
2023/10/28 10:56:40;;;;;;;6.40;2.37;;;11.70;89.30;;;;;;5009585;28;20046;-86
2023/10/28 10:59:07;;;;;;;7.28;2.28;;;11.70;89.40;;;;;;5010249;28;20336;-86
2023/10/28 11:01:35;;;;;;;6.57;2.05;;;11.70;89.40;;;;;;5010625;28;20054;-86
2023/10/28 11:04:03;;;;;;;6.03;2.08;;;11.70;89.20;;;;;;5027006;28;20072;-86
2023/10/28 11:06:30;;;;;;;5.90;1.90;;;11.80;89.20;;;;;;5009987;28;20049;-86
2023/10/28 11:08:57;;;;;;;7.60;2.43;;;11.80;89.20;;;;;;5010208;28;20085;-86
2023/10/28 11:11:25;;;;;;;7.80;2.35;;;11.90;89.20;;;;;;5009985;28;20269;-86
2023/10/28 11:13:52;;;;;;;7.85;2.53;;;11.90;89.10;;;;;;5009748;28;20519;-86
2023/10/28 11:16:21;;;;;;;7.30;2.53;;;11.90;89.10;;;;;;5010089;28;20208;-87
2023/10/28 11:18:50;;;;;;;5.28;1.90;;;11.90;89.10;;;;;;5026416;28;20073;-86
2023/10/28 11:21:18;;;;;;;5.70;2.13;;;11.90;89.10;;;;;;5010007;28;20484;-86
2023/10/28 11:23:46;;;;;;;6.70;1.92;;;11.90;89.20;;;;;;5009653;28;20250;-86
2023/10/28 11:26:18;;;;;;;6.88;2.10;;;11.90;89.20;;;;;;5025827;28;20109;-86
2023/10/28 11:28:44;;;;;;;5.40;2.30;;;12.00;89.30;;;;;;5025643;28;20503;-86
2023/10/28 11:31:12;;;;;;;4.85;1.70;;;12.00;89.20;;;;;;5026419;28;20192;-86
2023/10/28 11:33:39;;;;;;;5.80;2.37;;;12.00;89.10;;;;;;5026042;28;20046;-86
2023/10/28 11:36:08;;;;;;;6.15;2.10;;;12.00;89.10;;;;;;5026039;28;20858;-86
2023/10/28 11:38:35;;;;;;;6.70;2.15;;;12.00;89.10;;;;;;5025787;28;20050;-86
2023/10/28 11:41:04;;;;;;;5.95;2.10;;;12.10;89.20;;;;;;5009630;28;20590;-86
2023/10/28 11:43:32;;;;;;;6.68;2.10;;;12.10;89.20;;;;;;5009293;28;20057;-86
2023/10/28 11:45:58;;;;;;;6.30;2.10;;;12.10;89.10;;;;;;5026085;28;20641;-86
2023/10/28 11:48:25;;;;;;;5.65;1.80;;;12.10;89.10;;;;;;5026156;28;20277;-86
2023/10/28 11:50:53;;;;;;;6.15;1.90;;;12.10;89.20;;;;;;5009479;28;20065;-85
2023/10/28 11:53:24;;;;;;;7.00;2.22;;;12.20;89.20;;;;;;5009106;28;20081;-86
2023/10/28 11:55:52;;;;;;;6.60;2.08;;;12.20;89.00;;;;;;5026401;28;20200;-86
2023/10/28 11:58:19;;;;;;;7.47;1.80;;;12.20;88.90;;;;;;5012746;28;20138;-86
2023/10/28 12:00:50;;;;;;;4.88;1.80;;;12.20;88.80;;;;;;5029375;28;20279;-86
2023/10/28 12:03:17;;;;;;;6.82;1.70;;;12.20;88.90;;;;;;5028914;28;20088;-86
2023/10/28 12:05:44;;;;;;;6.30;1.70;;;12.30;88.70;;;;;;5012882;28;20542;-86
2023/10/28 12:08:12;;;;;;;6.28;2.00;;;12.30;88.60;;;;;;5012894;28;20045;-85
2023/10/28 12:10:43;;;;;;;7.23;1.70;;;12.30;88.70;;;;;;5028932;28;21188;-86
2023/10/28 12:13:11;;;;;;;5.72;1.63;;;12.30;88.60;;;;;;5028823;28;20277;-86
2023/10/28 12:15:38;;;;;;;8.27;1.75;;;12.30;88.60;;;;;;5012229;28;20137;-86
2023/10/28 12:18:05;;;;;;;4.20;1.65;;;12.40;88.60;;;;;;5028633;28;20104;-86
2023/10/28 12:20:32;;;;;;;5.03;1.50;;;12.40;88.50;;;;;;5028894;28;20172;-86
2023/10/28 12:22:59;;;;;;;5.80;1.47;;;12.40;88.50;;;;;;5028968;28;20602;-85
2023/10/28 12:25:27;;;;;;;7.43;2.35;;;12.50;88.40;;;;;;5012707;28;20299;-86
2023/10/28 12:27:55;;;;;;;6.78;1.80;;;12.50;88.20;;;;;;5011852;28;20074;-86
2023/10/28 12:30:22;;;;;;;7.10;1.88;;;12.50;88.20;;;;;;5012190;28;20053;-86
2023/10/28 12:32:51;;;;;;;5.97;1.48;;;12.50;88.20;;;;;;5012097;28;20137;-86
2023/10/28 12:35:18;;;;;;;4.70;1.77;;;12.50;88.10;;;;;;5028923;28;20134;-86
2023/10/28 12:37:45;;;;;;;5.55;1.90;;;12.50;88.00;;;;;;5028643;28;20277;-87
2023/10/28 12:40:12;;;;;;;6.18;1.90;;;12.50;88.00;;;;;;5028953;28;20232;-86
2023/10/28 12:42:39;;;;;;;6.53;1.60;;;12.50;87.80;;;;;;5028406;28;20708;-86
2023/10/28 12:45:10;;;;;;;5.75;1.98;;;12.50;87.70;;;;;;5028665;28;20077;-87